Time;durP1;ratioP1;P1;durP2;ratioP2;P2;SDS_P1;SDS_P2;PMS_P1;PMS_P2;Temp;Humidity;BMP_temperature;BMP_pressure;BME280_temperature;BME280_humidity;BME280_pressure;Samples;Min_cycle;Max_cycle;Signal;HPM_P1;HPM_P2
2022/11/16 00:00:58;;;;;;;22.98;16.60;;;8.60;99.90;;;;;;5070389;28;20027;-59
2022/11/16 00:03:24;;;;;;;22.25;16.95;;;8.60;99.90;;;;;;5070044;28;20029;-59
2022/11/16 00:05:55;;;;;;;21.70;16.35;;;8.50;99.90;;;;;;5070404;28;20090;-58
2022/11/16 00:08:20;;;;;;;25.33;16.95;;;8.50;99.90;;;;;;5067894;28;20118;-59
2022/11/16 00:10:46;;;;;;;21.73;17.42;;;8.50;99.90;;;;;;5070565;28;20602;-59
2022/11/16 00:13:11;;;;;;;23.00;15.73;;;8.50;99.90;;;;;;5069948;28;20515;-60
2022/11/16 00:15:37;;;;;;;24.77;17.85;;;8.50;99.90;;;;;;5070506;28;20036;-57
2022/11/16 00:18:02;;;;;;;25.13;18.38;;;8.40;99.90;;;;;;5070348;28;20039;-60
2022/11/16 00:20:28;;;;;;;24.08;17.17;;;8.40;99.90;;;;;;5070544;28;20028;-60
2022/11/16 00:22:53;;;;;;;24.05;17.95;;;8.40;99.90;;;;;;5069905;28;20040;-60
2022/11/16 00:25:19;;;;;;;24.33;16.83;;;8.30;99.90;;;;;;5070135;28;20028;-60
2022/11/16 00:27:44;;;;;;;26.50;18.27;;;8.30;99.90;;;;;;5069879;28;20025;-61
2022/11/16 00:30:10;;;;;;;25.05;17.25;;;8.30;99.90;;;;;;5069558;28;20032;-57
2022/11/16 00:32:36;;;;;;;21.55;16.80;;;8.30;99.90;;;;;;5069935;28;20032;-60
2022/11/16 00:35:01;;;;;;;27.13;18.98;;;8.30;99.90;;;;;;5069287;28;20020;-60
2022/11/16 00:37:27;;;;;;;23.45;16.73;;;8.30;99.90;;;;;;5069591;28;20432;-60
2022/11/16 00:39:53;;;;;;;24.30;18.20;;;8.30;99.90;;;;;;5069250;28;20040;-60
2022/11/16 00:42:18;;;;;;;24.23;17.58;;;8.30;99.90;;;;;;5069098;28;20036;-57
2022/11/16 00:44:44;;;;;;;24.73;17.40;;;8.20;99.90;;;;;;5069574;28;20028;-58
2022/11/16 00:47:09;;;;;;;23.70;17.42;;;8.20;99.90;;;;;;5069566;28;20036;-57
2022/11/16 00:49:36;;;;;;;23.33;16.27;;;8.20;99.90;;;;;;5069826;28;20027;-60
2022/11/16 00:52:01;;;;;;;23.55;17.48;;;8.10;99.90;;;;;;5069293;28;20103;-60
2022/11/16 00:54:27;;;;;;;27.77;18.83;;;8.10;99.90;;;;;;5069086;28;20178;-60
2022/11/16 00:56:52;;;;;;;25.75;18.23;;;8.10;99.90;;;;;;5069790;28;20089;-60
2022/11/16 00:59:18;;;;;;;26.70;17.90;;;8.00;99.90;;;;;;5069674;28;20028;-59
2022/11/16 01:01:43;;;;;;;24.90;17.30;;;8.00;99.90;;;;;;5049415;28;20092;-58
2022/11/16 01:04:09;;;;;;;27.27;18.90;;;8.00;99.90;;;;;;5069129;28;20055;-60
2022/11/16 01:06:34;;;;;;;26.25;18.10;;;8.00;99.90;;;;;;5068896;28;20120;-59
2022/11/16 01:09:00;;;;;;;23.33;17.75;;;8.00;99.90;;;;;;5069418;28;20021;-61
2022/11/16 01:14:10;;;;;;;24.08;18.83;;;7.90;99.90;;;;;;5069495;28;20036;-58
2022/11/16 01:16:36;;;;;;;24.77;18.15;;;7.90;99.90;;;;;;5068928;28;20043;-59
2022/11/16 01:19:03;;;;;;;22.48;16.77;;;7.90;99.90;;;;;;5069089;28;20484;-60
2022/11/16 01:21:28;;;;;;;26.60;18.58;;;7.90;99.90;;;;;;5068664;28;20025;-60
2022/11/16 01:23:55;;;;;;;27.83;18.05;;;7.90;99.90;;;;;;5069092;28;20429;-60
2022/11/16 01:26:21;;;;;;;26.52;18.00;;;7.80;99.90;;;;;;5054668;28;20373;-59
2022/11/16 01:28:47;;;;;;;28.88;19.25;;;7.80;99.90;;;;;;5069366;28;20023;-60
2022/11/16 01:31:12;;;;;;;25.48;17.15;;;7.80;99.90;;;;;;5068640;28;20029;-59
2022/11/16 01:33:39;;;;;;;27.15;19.02;;;7.80;99.90;;;;;;5068665;28;20017;-60
2022/11/16 01:36:13;;;;;;;27.52;16.85;;;7.80;99.90;;;;;;5065538;28;20027;-60
2022/11/16 01:38:44;;;;;;;28.52;19.40;;;7.80;99.90;;;;;;5059190;28;20487;-60
2022/11/16 01:41:15;;;;;;;26.58;18.77;;;7.70;99.90;;;;;;5068299;28;20628;-60
2022/11/16 01:43:58;;;;;;;24.42;18.35;;;7.70;99.90;;;;;;5068715;28;20017;-59
2022/11/16 01:46:25;;;;;;;30.55;18.92;;;7.70;99.90;;;;;;5067756;28;20496;-59
2022/11/16 01:49:05;;;;;;;24.40;16.77;;;7.70;99.90;;;;;;5068646;28;20400;-59
2022/11/16 01:51:32;;;;;;;28.83;18.83;;;7.60;99.90;;;;;;5058652;28;20020;-59
2022/11/16 01:54:01;;;;;;;28.05;18.23;;;7.60;99.90;;;;;;5068352;28;20032;-60
2022/11/16 01:56:30;;;;;;;24.55;17.42;;;7.60;99.90;;;;;;5068550;28;20028;-59
2022/11/16 01:58:56;;;;;;;27.30;18.92;;;7.60;99.90;;;;;;5066651;28;20028;-59
2022/11/16 02:01:22;;;;;;;27.80;19.10;;;7.60;99.90;;;;;;5065882;28;20040;-60
2022/11/16 02:03:48;;;;;;;26.90;17.83;;;7.60;99.90;;;;;;5066545;28;20075;-60
2022/11/16 02:06:25;;;;;;;29.65;18.55;;;7.60;99.90;;;;;;5056435;28;20063;-60
2022/11/16 02:12:08;;;;;;;30.52;19.45;;;7.60;99.90;;;;;;5068069;28;20054;-59
2022/11/16 02:14:37;;;;;;;32.60;19.25;;;7.60;99.90;;;;;;5069174;28;20649;-60
2022/11/16 02:17:14;;;;;;;30.27;19.38;;;7.60;99.90;;;;;;5072217;28;20060;-60
2022/11/16 02:19:58;;;;;;;34.80;20.55;;;7.50;99.90;;;;;;5072568;28;20028;-60
2022/11/16 02:22:51;;;;;;;33.15;20.30;;;7.50;99.90;;;;;;5064887;28;20484;-60
2022/11/16 02:25:41;;;;;;;32.58;19.73;;;7.50;99.90;;;;;;5069459;28;20027;-60
2022/11/16 02:28:30;;;;;;;31.40;19.65;;;7.40;99.90;;;;;;5072192;28;20024;-60
2022/11/16 02:31:01;;;;;;;35.38;22.00;;;7.40;99.90;;;;;;5058596;28;20020;-60
2022/11/16 02:33:36;;;;;;;38.42;22.00;;;7.40;99.90;;;;;;5071459;28;20637;-59
2022/11/16 02:36:05;;;;;;;31.83;18.90;;;7.40;99.90;;;;;;5072123;28;20094;-59
2022/11/16 02:38:35;;;;;;;39.75;21.15;;;7.30;99.90;;;;;;5071600;28;20448;-60
2022/11/16 02:41:13;;;;;;;36.13;20.08;;;7.30;99.90;;;;;;5072226;28;20024;-60
2022/11/16 02:43:47;;;;;;;36.95;20.85;;;7.30;99.90;;;;;;5071956;28;20028;-60
2022/11/16 02:46:22;;;;;;;36.83;19.88;;;7.30;99.90;;;;;;5072123;28;20268;-60
2022/11/16 02:48:52;;;;;;;35.78;20.10;;;7.30;99.90;;;;;;5072359;28;20032;-60
2022/11/16 02:51:19;;;;;;;34.95;20.83;;;7.30;99.90;;;;;;5068301;28;20067;-61
2022/11/16 02:54:19;;;;;;;37.45;20.67;;;7.30;99.90;;;;;;5093713;22;20402;-58
2022/11/16 02:57:11;;;;;;;36.17;20.55;;;7.30;99.90;;;;;;5067415;28;20029;-54
2022/11/16 02:59:43;;;;;;;34.67;21.42;;;7.30;99.90;;;;;;5071564;28;20491;-54
2022/11/16 03:02:39;;;;;;;33.28;19.05;;;7.30;99.90;;;;;;5070628;28;20035;-55
2022/11/16 03:05:30;;;;;;;34.78;20.25;;;7.30;99.90;;;;;;5071424;28;20542;-53
2022/11/16 03:08:05;;;;;;;30.02;20.23;;;7.20;99.90;;;;;;5071192;28;20032;-55
2022/11/16 03:13:19;;;;;;;34.28;19.48;;;7.20;99.90;;;;;;5067561;28;20074;-52
2022/11/16 03:15:47;;;;;;;35.47;20.42;;;7.20;99.90;;;;;;5071439;28;20052;-52
2022/11/16 03:18:15;;;;;;;34.95;20.50;;;7.20;99.90;;;;;;5071498;28;20028;-51
2022/11/16 03:20:42;;;;;;;33.78;19.90;;;7.20;99.90;;;;;;5071366;28;20408;-52
2022/11/16 03:23:11;;;;;;;33.60;20.55;;;7.20;99.90;;;;;;5070833;28;20089;-51
2022/11/16 03:25:48;;;;;;;34.58;20.10;;;7.20;99.90;;;;;;5071269;28;20051;-55
2022/11/16 03:28:35;;;;;;;36.08;20.42;;;7.20;99.90;;;;;;5071607;28;20032;-52
2022/11/16 03:31:04;;;;;;;;;;;7.20;99.90;;;;;;5063502;28;20052;-53
2022/11/16 03:33:36;;;;;;;30.55;18.63;;;7.20;99.90;;;;;;5070863;28;19912;-54
2022/11/16 03:36:09;;;;;;;34.10;19.95;;;7.10;99.90;;;;;;5070957;28;20016;-54
2022/11/16 03:38:38;;;;;;;31.17;19.42;;;7.10;99.90;;;;;;5070384;28;20027;-53
2022/11/16 03:41:07;;;;;;;28.98;18.63;;;7.10;99.90;;;;;;5070819;28;20440;-51
2022/11/16 03:43:33;;;;;;;30.65;19.48;;;7.10;99.90;;;;;;5070656;28;20054;-51
2022/11/16 03:45:59;;;;;;;35.47;20.13;;;7.10;99.90;;;;;;5068549;28;20016;-53
2022/11/16 03:48:31;;;;;;;28.55;18.25;;;7.10;99.90;;;;;;5070367;28;20037;-52
2022/11/16 03:50:56;;;;;;;30.27;19.15;;;7.10;99.90;;;;;;5070710;28;20029;-52
2022/11/16 03:53:22;;;;;;;33.47;19.98;;;7.10;99.90;;;;;;5069835;28;20400;-51
2022/11/16 03:55:47;;;;;;;30.63;19.75;;;7.00;99.90;;;;;;5070540;28;20035;-56
2022/11/16 03:58:13;;;;;;;33.17;20.10;;;7.10;99.90;;;;;;5070797;28;20029;-51
2022/11/16 04:00:38;;;;;;;32.65;19.45;;;7.10;99.90;;;;;;5069936;28;20047;-52
2022/11/16 04:03:04;;;;;;;34.13;19.10;;;7.10;99.90;;;;;;5070313;28;20028;-53
2022/11/16 04:25:10;;;;;;;32.60;19.10;;;7.00;99.90;;;;;;5069783;28;20036;-54
2022/11/16 04:30:20;;;;;;;31.08;19.67;;;7.00;99.90;;;;;;5068703;28;20093;-54
2022/11/16 04:38:15;;;;;;;33.92;20.45;;;7.00;99.90;;;;;;5065810;28;20112;-53
2022/11/16 04:40:40;;;;;;;30.75;19.23;;;7.00;99.90;;;;;;5069637;28;20103;-55
2022/11/16 04:43:06;;;;;;;31.25;19.52;;;7.00;99.90;;;;;;5069301;28;20044;-53
2022/11/16 04:48:18;;;;;;;30.15;18.65;;;6.90;99.90;;;;;;5066306;28;20569;-51
2022/11/16 04:50:45;;;;;;;32.47;19.55;;;6.90;99.90;;;;;;5069495;28;20036;-52
2022/11/16 04:53:10;;;;;;;30.67;18.92;;;6.90;99.90;;;;;;5069053;28;20043;-52
2022/11/16 04:55:36;;;;;;;36.45;19.67;;;6.90;99.90;;;;;;5067734;28;20119;-51
2022/11/16 04:58:02;;;;;;;34.92;20.02;;;6.90;99.90;;;;;;5069504;28;20036;-53
2022/11/16 05:00:28;;;;;;;32.95;20.50;;;6.90;99.90;;;;;;5068407;28;20032;-52
2022/11/16 05:02:54;;;;;;;32.78;19.33;;;6.90;99.90;;;;;;5068726;28;20040;-51
2022/11/16 05:05:19;;;;;;;31.75;18.70;;;6.90;99.90;;;;;;5069162;28;20036;-53
2022/11/16 05:07:45;;;;;;;31.90;19.58;;;6.90;99.90;;;;;;5069139;28;20028;-52
2022/11/16 05:10:11;;;;;;;33.28;19.25;;;6.90;99.90;;;;;;5068747;28;20032;-50
2022/11/16 05:12:37;;;;;;;32.53;19.88;;;6.90;99.90;;;;;;5069097;28;20029;-53
2022/11/16 05:15:04;;;;;;;30.85;19.58;;;6.90;99.90;;;;;;5068775;28;20035;-52
2022/11/16 05:17:29;;;;;;;31.88;19.83;;;6.90;99.90;;;;;;5068899;28;20096;-58
2022/11/16 05:22:39;;;;;;;31.05;19.30;;;6.90;99.90;;;;;;5068773;28;20030;-52
2022/11/16 05:25:06;;;;;;;32.55;19.52;;;6.80;99.90;;;;;;5068468;28;20028;-52
2022/11/16 05:27:32;;;;;;;34.47;19.17;;;6.90;99.90;;;;;;5068160;28;20028;-55
2022/11/16 05:29:58;;;;;;;34.42;19.55;;;6.90;99.90;;;;;;5063200;28;20150;-52
2022/11/16 05:32:25;;;;;;;31.42;20.00;;;6.80;99.90;;;;;;5068979;28;20070;-52
2022/11/16 05:34:50;;;;;;;35.33;19.35;;;6.80;99.90;;;;;;5066315;28;20040;-56
2022/11/16 05:37:19;;;;;;;35.45;20.67;;;6.80;99.90;;;;;;5068963;28;20079;-52
2022/11/16 05:39:45;;;;;;;37.25;19.88;;;6.80;99.90;;;;;;5051873;28;20028;-51
2022/11/16 05:42:11;;;;;;;38.10;22.95;;;6.80;99.90;;;;;;5068715;28;20027;-53
2022/11/16 05:44:36;;;;;;;40.60;21.17;;;6.70;99.90;;;;;;5067525;28;20408;-55
2022/11/16 05:47:02;;;;;;;34.78;21.02;;;6.70;99.90;;;;;;5068873;28;20473;-54
2022/11/16 05:49:27;;;;;;;39.70;22.63;;;6.70;99.90;;;;;;5068603;28;20059;-54
2022/11/16 05:51:53;;;;;;;35.72;21.55;;;6.70;99.90;;;;;;5068552;28;20043;-56
2022/11/16 05:54:21;;;;;;;36.53;19.90;;;6.70;99.90;;;;;;5068503;28;20039;-52
2022/11/16 05:56:48;;;;;;;37.22;20.90;;;6.70;99.90;;;;;;5069232;28;20036;-52
2022/11/16 05:59:15;;;;;;;36.30;21.48;;;6.70;99.90;;;;;;5068661;28;20052;-56
2022/11/16 06:01:41;;;;;;;36.50;20.90;;;6.70;99.90;;;;;;5068703;28;20112;-55
2022/11/16 06:04:07;;;;;;;41.78;21.23;;;6.70;99.90;;;;;;5068353;28;20136;-56
2022/11/16 06:06:33;;;;;;;35.38;21.25;;;6.70;99.90;;;;;;5068192;28;20089;-53
2022/11/16 06:08:58;;;;;;;38.10;21.88;;;6.70;99.90;;;;;;5052600;28;20025;-51
2022/11/16 06:11:24;;;;;;;33.10;20.60;;;6.60;99.90;;;;;;5067951;28;20420;-53
2022/11/16 06:13:49;;;;;;;32.67;20.33;;;6.60;99.90;;;;;;5068205;28;20542;-56
2022/11/16 06:16:15;;;;;;;35.50;21.83;;;6.60;99.90;;;;;;5061168;28;20028;-53
2022/11/16 06:18:43;;;;;;;35.97;21.38;;;6.70;99.90;;;;;;5070401;28;20028;-54
2022/11/16 06:21:10;;;;;;;34.75;19.27;;;6.70;99.90;;;;;;5058267;28;20392;-52
2022/11/16 06:23:36;;;;;;;32.47;19.77;;;6.70;99.90;;;;;;5069073;28;20032;-54
2022/11/16 06:26:02;;;;;;;31.90;20.85;;;6.70;99.90;;;;;;5068038;28;20043;-55
2022/11/16 06:28:28;;;;;;;31.38;18.52;;;6.60;99.90;;;;;;5068811;28;20111;-53
2022/11/16 06:30:54;;;;;;;34.00;18.40;;;6.70;99.90;;;;;;5066888;28;20039;-52
2022/11/16 06:33:19;;;;;;;35.72;18.90;;;6.70;99.90;;;;;;5068269;28;20020;-52
2022/11/16 06:35:45;;;;;;;30.88;20.67;;;6.70;99.90;;;;;;5068736;28;20228;-54
2022/11/16 06:38:17;;;;;;;29.42;18.80;;;6.70;99.90;;;;;;5067922;28;20124;-56
2022/11/16 06:40:53;;;;;;;31.70;19.58;;;6.70;99.90;;;;;;5068397;28;20024;-57
2022/11/16 06:43:20;;;;;;;27.83;18.30;;;6.70;99.90;;;;;;5067623;28;20028;-53
2022/11/16 06:45:54;;;;;;;30.52;20.08;;;6.70;99.90;;;;;;5058785;28;20032;-52
2022/11/16 06:48:20;;;;;;;31.75;18.80;;;6.70;99.90;;;;;;5067169;28;20058;-54
2022/11/16 06:50:49;;;;;;;34.17;18.77;;;6.70;99.90;;;;;;5068148;28;20502;-52
2022/11/16 06:53:15;;;;;;;35.45;21.02;;;6.70;99.90;;;;;;5065713;28;20025;-55
2022/11/16 06:55:41;;;;;;;28.92;18.35;;;6.70;99.90;;;;;;5058193;28;20602;-54
2022/11/16 06:58:06;;;;;;;32.38;19.60;;;6.70;99.90;;;;;;5068112;28;20029;-55
2022/11/16 07:00:32;;;;;;;34.65;19.88;;;6.70;99.90;;;;;;5059712;28;20558;-53
2022/11/16 07:02:58;;;;;;;27.08;19.30;;;6.80;99.90;;;;;;5071362;28;20047;-53
2022/11/16 07:05:23;;;;;;;26.65;17.38;;;6.80;99.90;;;;;;5071435;28;20063;-59
2022/11/16 07:07:53;;;;;;;26.02;18.67;;;6.80;99.90;;;;;;5071494;28;20043;-55
2022/11/16 07:10:19;;;;;;;27.88;18.08;;;6.80;99.90;;;;;;5068652;28;20037;-59
2022/11/16 07:12:44;;;;;;;31.10;18.92;;;6.80;99.90;;;;;;5071546;28;20413;-54
2022/11/16 07:15:10;;;;;;;26.13;18.25;;;6.80;99.90;;;;;;5071343;28;20028;-57
2022/11/16 07:17:36;;;;;;;28.75;17.70;;;6.80;99.90;;;;;;5070838;28;20388;-57
2022/11/16 07:20:01;;;;;;;27.48;18.17;;;6.80;99.90;;;;;;5063000;28;20051;-53
2022/11/16 07:22:27;;;;;;;28.00;17.55;;;6.80;99.90;;;;;;5070759;28;20028;-53
2022/11/16 07:24:52;;;;;;;27.63;18.25;;;6.80;99.90;;;;;;5071153;28;20020;-55
2022/11/16 07:27:18;;;;;;;25.23;18.40;;;6.80;99.90;;;;;;5070928;28;20434;-56
2022/11/16 07:29:43;;;;;;;27.45;18.25;;;6.90;99.90;;;;;;5070604;28;20046;-54
2022/11/16 07:32:09;;;;;;;29.75;19.00;;;6.90;99.90;;;;;;5069975;28;20066;-56
2022/11/16 07:34:34;;;;;;;29.38;18.98;;;6.90;99.90;;;;;;5057440;28;20021;-55
2022/11/16 07:37:00;;;;;;;29.20;20.10;;;6.90;99.90;;;;;;5070786;28;20032;-54
2022/11/16 07:39:25;;;;;;;31.85;19.40;;;6.90;99.90;;;;;;5070957;28;20031;-55
2022/11/16 07:41:52;;;;;;;29.00;17.90;;;6.90;99.90;;;;;;5070023;28;20024;-54
2022/11/16 07:44:18;;;;;;;29.70;19.50;;;7.00;99.90;;;;;;5067035;28;20024;-56
2022/11/16 07:46:43;;;;;;;28.45;19.92;;;7.00;99.90;;;;;;5070832;28;20032;-56
2022/11/16 07:49:17;;;;;;;29.05;19.83;;;6.90;99.90;;;;;;5071093;28;20079;-56
2022/11/16 07:51:43;;;;;;;29.08;20.00;;;7.00;99.90;;;;;;5070183;28;20028;-55
2022/11/16 07:54:15;;;;;;;29.20;19.55;;;7.00;99.90;;;;;;5070587;28;20696;-52
2022/11/16 07:56:41;;;;;;;30.60;19.33;;;7.00;99.90;;;;;;5069943;28;20107;-53
2022/11/16 07:59:07;;;;;;;25.63;18.95;;;7.00;99.90;;;;;;5069564;28;20763;-51
2022/11/16 08:01:33;;;;;;;29.33;19.70;;;7.00;99.90;;;;;;5069812;28;20033;-57
2022/11/16 08:04:00;;;;;;;29.23;19.30;;;7.00;99.90;;;;;;5069214;28;20021;-52
2022/11/16 08:06:28;;;;;;;28.55;19.48;;;7.00;99.90;;;;;;5069967;28;20035;-55
2022/11/16 08:08:54;;;;;;;29.38;18.50;;;7.00;99.90;;;;;;5069338;28;20056;-53
2022/11/16 08:11:19;;;;;;;28.60;19.33;;;7.00;99.90;;;;;;5069108;28;20048;-54
2022/11/16 08:13:45;;;;;;;29.35;18.92;;;7.00;99.90;;;;;;5069080;28;20112;-54
2022/11/16 08:16:13;;;;;;;30.23;20.52;;;7.00;99.90;;;;;;5056201;28;20107;-53
2022/11/16 08:18:40;;;;;;;29.77;20.17;;;7.00;99.90;;;;;;5070249;28;20120;-53
2022/11/16 08:21:08;;;;;;;27.77;18.67;;;7.00;99.90;;;;;;5069117;28;20052;-52
2022/11/16 08:23:33;;;;;;;29.80;19.67;;;6.90;99.90;;;;;;5068985;28;20035;-56
2022/11/16 08:26:02;;;;;;;25.90;17.90;;;7.00;99.90;;;;;;5070054;28;20400;-58
2022/11/16 08:28:28;;;;;;;29.20;19.90;;;7.00;99.90;;;;;;5070049;28;20510;-55
2022/11/16 08:30:54;;;;;;;33.10;19.85;;;7.00;99.90;;;;;;5069702;28;20412;-55
2022/11/16 08:33:20;;;;;;;31.17;19.83;;;7.00;99.90;;;;;;5065462;28;20021;-55
2022/11/16 08:35:53;;;;;;;27.10;17.60;;;7.00;99.90;;;;;;5065541;28;20610;-55
2022/11/16 08:38:19;;;;;;;31.48;19.52;;;7.00;99.90;;;;;;5069997;28;20024;-55
2022/11/16 08:40:45;;;;;;;30.65;20.27;;;6.90;99.90;;;;;;5069494;28;20655;-56
2022/11/16 08:43:11;;;;;;;34.92;19.65;;;7.00;99.90;;;;;;5068773;28;20024;-52
2022/11/16 08:45:37;;;;;;;27.58;17.60;;;6.90;99.90;;;;;;5069956;28;20058;-55
2022/11/16 08:48:04;;;;;;;33.20;20.58;;;6.90;99.90;;;;;;5068797;28;20016;-52
2022/11/16 08:50:30;;;;;;;27.83;19.10;;;6.90;99.90;;;;;;5069531;28;20115;-54
2022/11/16 08:52:56;;;;;;;34.30;20.55;;;6.90;99.90;;;;;;5069771;28;20028;-52
2022/11/16 08:55:22;;;;;;;32.53;20.65;;;6.90;99.90;;;;;;5069901;28;20044;-56
2022/11/16 08:57:48;;;;;;;33.13;20.90;;;6.90;99.90;;;;;;5070112;28;20031;-52
2022/11/16 09:00:14;;;;;;;32.53;19.25;;;6.90;99.90;;;;;;5069822;28;20099;-55
2022/11/16 09:02:39;;;;;;;30.70;20.27;;;6.90;99.90;;;;;;5069642;28;20027;-54
2022/11/16 09:05:06;;;;;;;29.75;18.55;;;6.90;99.90;;;;;;5069424;28;20601;-54
2022/11/16 09:07:32;;;;;;;31.95;20.75;;;6.90;99.90;;;;;;5069425;28;20062;-55
2022/11/16 09:09:58;;;;;;;37.05;21.60;;;6.90;99.90;;;;;;5069770;28;20438;-54
2022/11/16 09:12:24;;;;;;;34.13;20.13;;;6.90;99.90;;;;;;5069319;28;20032;-56
2022/11/16 09:14:50;;;;;;;31.95;19.38;;;6.90;99.90;;;;;;5069702;28;20087;-53
2022/11/16 09:17:15;;;;;;;37.83;21.48;;;6.80;99.90;;;;;;5064586;28;20024;-53
2022/11/16 09:19:41;;;;;;;37.53;22.27;;;6.80;99.90;;;;;;5069591;28;20024;-55
2022/11/16 09:22:07;;;;;;;40.88;21.65;;;6.90;99.90;;;;;;5069327;28;20040;-53
2022/11/16 09:24:33;;;;;;;34.67;21.23;;;6.80;99.90;;;;;;5069222;28;20031;-52
2022/11/16 09:27:00;;;;;;;40.80;21.85;;;6.80;99.90;;;;;;5069670;28;20024;-51
2022/11/16 09:29:26;;;;;;;37.53;21.73;;;6.80;99.90;;;;;;5069672;28;20012;-56
2022/11/16 09:31:53;;;;;;;35.38;22.33;;;6.80;99.90;;;;;;5069354;28;20024;-55
2022/11/16 09:34:19;;;;;;;40.63;22.48;;;6.80;99.90;;;;;;5068602;28;20100;-55
2022/11/16 09:36:44;;;;;;;37.28;22.67;;;6.80;99.90;;;;;;5069229;28;20066;-51
2022/11/16 09:39:11;;;;;;;37.70;21.33;;;6.80;99.90;;;;;;5061157;28;20463;-57
2022/11/16 09:41:59;;;;;;;46.17;22.25;;;6.80;99.90;;;;;;5066252;28;20768;-55
2022/11/16 09:44:36;;;;;;;40.05;21.52;;;6.80;99.90;;;;;;5062406;28;20025;-55
2022/11/16 09:47:03;;;;;;;38.28;23.20;;;6.80;99.90;;;;;;5068983;28;20020;-54
2022/11/16 09:49:42;;;;;;;44.45;24.00;;;6.80;99.90;;;;;;5059216;28;20017;-56
2022/11/16 09:52:17;;;;;;;36.03;23.08;;;6.80;99.90;;;;;;5068351;28;20256;-56
2022/11/16 09:54:46;;;;;;;41.90;24.52;;;6.80;99.90;;;;;;5068540;28;20070;-55
2022/11/16 09:57:15;;;;;;;39.25;22.90;;;6.80;99.90;;;;;;5068347;28;20028;-52
2022/11/16 09:59:46;;;;;;;41.75;23.40;;;6.80;99.90;;;;;;5069375;28;20025;-55
2022/11/16 10:02:37;;;;;;;43.80;21.85;;;6.80;99.90;;;;;;5069342;28;20050;-54
2022/11/16 10:05:46;;;;;;;41.42;22.92;;;6.80;99.90;;;;;;5067561;28;20032;-57
2022/11/16 10:08:46;;;;;;;38.72;22.15;;;6.80;99.90;;;;;;4978471;28;20387;-57
2022/11/16 10:11:32;;;;;;;44.17;23.45;;;6.80;99.90;;;;;;5068101;28;20119;-56
2022/11/16 10:14:37;;;;;;;38.97;22.80;;;6.80;99.90;;;;;;5059293;28;20021;-55
2022/11/16 10:17:32;;;;;;;39.90;24.25;;;6.80;99.90;;;;;;5067702;28;20025;-57
2022/11/16 10:20:39;;;;;;;40.65;23.25;;;6.80;99.90;;;;;;5046546;28;20044;-53
2022/11/16 10:23:42;;;;;;;45.63;23.38;;;6.80;99.90;;;;;;5066532;28;20025;-57
2022/11/16 10:26:50;;;;;;;42.08;23.75;;;6.80;99.90;;;;;;5068257;28;20036;-55
2022/11/16 10:29:54;;;;;;;42.65;24.33;;;6.80;99.90;;;;;;5031218;28;20049;-55
2022/11/16 10:32:27;;;;;;;47.03;24.02;;;6.80;99.90;;;;;;5054380;28;20047;-54
2022/11/16 10:34:59;;;;;;;42.60;23.90;;;6.80;99.90;;;;;;5065611;28;20523;-54
2022/11/16 10:37:30;;;;;;;43.80;24.40;;;6.80;99.90;;;;;;5072327;28;20028;-54
2022/11/16 10:39:55;;;;;;;45.08;24.02;;;6.80;99.90;;;;;;5071560;28;20170;-55
2022/11/16 10:42:35;;;;;;;43.00;23.17;;;6.80;99.90;;;;;;5072146;28;20100;-56
2022/11/16 10:45:04;;;;;;;40.25;23.45;;;6.80;99.90;;;;;;5070190;28;20016;-56
2022/11/16 10:47:57;;;;;;;46.35;23.58;;;6.80;99.90;;;;;;5060049;28;20517;-52
2022/11/16 10:50:44;;;;;;;45.28;23.65;;;6.90;99.90;;;;;;5063777;28;20393;-57
2022/11/16 10:53:14;;;;;;;40.08;22.58;;;6.80;99.90;;;;;;5071337;28;20103;-53
2022/11/16 10:55:40;;;;;;;44.75;25.70;;;6.90;99.90;;;;;;5070796;28;20503;-52
2022/11/16 10:58:05;;;;;;;46.63;24.70;;;6.90;99.90;;;;;;5071963;28;20033;-53
2022/11/16 11:00:39;;;;;;;50.63;24.35;;;6.90;99.90;;;;;;5071227;28;20031;-55
2022/11/16 11:03:05;;;;;;;44.90;24.10;;;6.90;99.90;;;;;;5071792;28;20036;-56
2022/11/16 11:05:31;;;;;;;45.58;24.42;;;6.90;99.90;;;;;;5071473;28;20593;-56
2022/11/16 11:08:00;;;;;;;42.00;23.42;;;6.90;99.90;;;;;;5071806;28;20055;-57
2022/11/16 11:10:27;;;;;;;39.55;23.25;;;6.90;99.90;;;;;;5071629;28;20032;-53
2022/11/16 11:13:21;;;;;;;51.85;27.08;;;6.90;99.90;;;;;;5071794;28;20051;-54
2022/11/16 11:15:50;;;;;;;48.92;24.25;;;6.90;99.90;;;;;;5069582;28;20067;-53
2022/11/16 11:18:24;;;;;;;47.05;23.05;;;6.90;99.90;;;;;;5056636;28;20400;-56
2022/11/16 11:21:11;;;;;;;49.67;24.98;;;6.90;99.90;;;;;;5071815;28;20043;-55
2022/11/16 11:23:47;;;;;;;43.88;23.83;;;6.90;99.90;;;;;;5071462;28;20093;-56
2022/11/16 11:26:31;;;;;;;;;;;6.90;99.90;;;;;;5072107;28;20101;-55
2022/11/16 11:28:58;;;;;;;45.58;25.38;;;6.90;99.90;;;;;;5072100;28;19909;-56
2022/11/16 11:31:37;;;;;;;44.10;25.25;;;6.90;99.90;;;;;;5071128;28;20127;-56
2022/11/16 11:34:17;;;;;;;48.50;25.02;;;6.90;99.90;;;;;;5057320;28;20031;-54
2022/11/16 11:36:58;;;;;;;49.80;25.27;;;6.90;99.90;;;;;;5054299;28;20100;-55
2022/11/16 11:39:27;;;;;;;47.30;25.83;;;6.90;99.90;;;;;;5067570;28;20434;-57
2022/11/16 11:42:16;;;;;;;43.33;23.23;;;6.90;99.90;;;;;;5071087;28;20048;-55
2022/11/16 11:44:48;;;;;;;40.90;22.60;;;7.00;99.90;;;;;;5070887;28;20028;-52
2022/11/16 11:47:20;;;;;;;40.83;23.73;;;7.00;99.90;;;;;;5071309;28;20040;-55
2022/11/16 11:49:51;;;;;;;47.50;24.00;;;7.00;99.90;;;;;;5071144;28;20055;-52
2022/11/16 11:52:38;;;;;;;46.22;23.50;;;7.00;99.90;;;;;;5068632;28;20051;-54
2022/11/16 11:55:06;;;;;;;42.80;22.85;;;7.00;99.90;;;;;;5070254;28;20024;-56
2022/11/16 11:57:37;;;;;;;49.55;24.27;;;7.10;99.90;;;;;;5071265;28;20043;-55
2022/11/16 12:00:04;;;;;;;40.72;23.35;;;7.00;99.90;;;;;;5071587;28;20060;-55
2022/11/16 12:02:57;;;;;;;43.63;23.25;;;7.10;99.90;;;;;;5070212;28;20036;-54
2022/11/16 12:05:47;;;;;;;42.72;24.08;;;7.10;99.90;;;;;;5063613;28;20028;-55
2022/11/16 12:08:19;;;;;;;49.92;24.08;;;7.10;99.90;;;;;;5070716;28;20035;-55
2022/11/16 12:11:04;;;;;;;43.22;23.95;;;7.10;99.90;;;;;;5070595;28;20025;-60
2022/11/16 12:13:52;;;;;;;44.88;24.63;;;7.10;99.90;;;;;;5064161;28;20033;-55
2022/11/16 12:16:22;;;;;;;42.80;23.70;;;7.10;99.90;;;;;;5062728;28;20021;-55
2022/11/16 12:18:53;;;;;;;49.55;24.55;;;7.10;99.90;;;;;;5070732;28;20055;-51
2022/11/16 12:21:40;;;;;;;43.30;26.00;;;7.20;99.90;;;;;;5070337;28;20396;-57
2022/11/16 12:24:15;;;;;;;44.30;23.40;;;7.20;99.90;;;;;;5070060;28;20116;-56
2022/11/16 12:27:05;;;;;;;54.47;26.05;;;7.20;99.90;;;;;;5070498;28;20030;-56
2022/11/16 12:29:36;;;;;;;42.75;25.90;;;7.20;99.90;;;;;;5068406;28;20021;-55
2022/11/16 12:32:01;;;;;;;43.65;24.17;;;7.20;99.90;;;;;;5059236;28;20037;-55
2022/11/16 12:34:42;;;;;;;48.50;24.63;;;7.30;99.90;;;;;;5069636;28;20735;-55
2022/11/16 12:37:19;;;;;;;52.70;25.05;;;7.20;99.90;;;;;;5068534;28;20059;-57
2022/11/16 12:40:26;;;;;;;52.88;24.70;;;7.30;99.90;;;;;;5068828;28;20626;-55
2022/11/16 12:43:17;;;;;;;43.75;23.58;;;7.30;99.90;;;;;;5066581;28;20029;-55
2022/11/16 12:46:25;;;;;;;42.53;23.38;;;7.20;99.90;;;;;;5069736;28;20082;-52
2022/11/16 12:49:15;;;;;;;49.15;25.33;;;7.30;99.90;;;;;;5053132;28;20051;-57
2022/11/16 12:52:06;;;;;;;45.75;25.23;;;7.30;99.90;;;;;;5068208;28;20028;-56
2022/11/16 12:54:38;;;;;;;45.53;23.83;;;7.30;99.90;;;;;;5063376;28;20507;-56
2022/11/16 12:57:11;;;;;;;47.05;24.77;;;7.30;99.90;;;;;;5069515;28;20032;-51
2022/11/16 12:59:45;;;;;;;48.78;25.13;;;7.30;99.90;;;;;;5057722;28;20501;-56
2022/11/16 13:02:25;;;;;;;53.95;25.60;;;7.30;99.90;;;;;;5059004;28;20020;-56
2022/11/16 13:04:59;;;;;;;47.13;23.83;;;7.30;99.90;;;;;;5069306;28;20381;-57
2022/11/16 13:07:43;;;;;;;45.90;24.42;;;7.30;99.90;;;;;;5069379;28;20504;-56
2022/11/16 13:10:18;;;;;;;50.10;23.58;;;7.30;99.90;;;;;;5067221;28;20029;-57
2022/11/16 13:12:47;;;;;;;44.85;24.73;;;7.30;99.90;;;;;;5059338;28;20079;-53
2022/11/16 13:15:19;;;;;;;48.22;23.33;;;7.30;99.90;;;;;;5069488;28;20033;-56
2022/11/16 13:17:55;;;;;;;46.10;25.17;;;7.30;99.90;;;;;;5068892;28;20036;-57
2022/11/16 13:20:44;;;;;;;46.50;24.73;;;7.30;99.90;;;;;;5062510;28;20093;-57
2022/11/16 13:23:45;;;;;;;48.15;24.90;;;7.30;99.90;;;;;;5068053;28;20025;-57
2022/11/16 13:26:29;;;;;;;49.63;24.67;;;7.30;99.90;;;;;;5031999;28;20520;-52
2022/11/16 13:29:27;;;;;;;44.80;23.40;;;7.30;99.90;;;;;;5068770;28;20032;-53
2022/11/16 13:32:02;;;;;;;43.90;22.30;;;7.30;99.90;;;;;;5060865;28;20027;-53
2022/11/16 13:34:32;;;;;;;40.17;23.25;;;7.20;99.90;;;;;;5068567;28;20558;-55
2022/11/16 13:36:58;;;;;;;43.95;22.73;;;7.20;99.90;;;;;;5067882;28;20028;-55
2022/11/16 13:39:57;;;;;;;38.15;21.60;;;7.20;99.90;;;;;;5067043;28;20464;-56
2022/11/16 13:42:24;;;;;;;40.85;22.90;;;7.20;99.90;;;;;;5068567;28;20034;-56